createdAt,value
2018-12-09T00:03:25.172Z,95267.72
2018-12-09T00:05:54.906Z,95273.98
2018-12-09T00:08:23.845Z,95272.38
2018-12-09T00:10:52.975Z,95276.05
2018-12-09T00:13:21.847Z,95280.37
2018-12-09T00:15:50.630Z,95286.25
2018-12-09T00:18:20.098Z,95282.16
2018-12-09T00:20:48.825Z,95291.69
2018-12-09T00:23:17.574Z,95289.92
2018-12-09T00:25:46.564Z,95297.53
2018-12-09T00:28:15.325Z,95285.82
2018-12-09T00:30:44.629Z,95276.50
2018-12-09T00:33:13.374Z,95269.12
2018-12-09T00:35:42.185Z,95278.88
2018-12-09T00:38:11.599Z,95273.13
2018-12-09T00:40:40.323Z,95256.18
2018-12-09T00:43:09.174Z,95253.44
2018-12-09T00:45:37.926Z,95248.25
2018-12-09T00:48:06.676Z,95264.20
2018-12-09T00:50:35.792Z,95280.80
2018-12-09T00:53:04.854Z,95278.83
2018-12-09T00:55:34.117Z,95293.48
2018-12-09T00:58:02.932Z,95275.47
2018-12-09T01:00:31.949Z,95284.69
2018-12-09T01:03:00.696Z,95282.95
2018-12-09T01:05:29.464Z,95277.70
2018-12-09T01:07:58.210Z,95275.52
2018-12-09T01:10:27.658Z,95265.17
2018-12-09T01:12:56.411Z,95271.91
2018-12-09T01:15:25.802Z,95273.20
2018-12-09T01:17:54.926Z,95273.71
2018-12-09T01:20:23.642Z,95266.09
2018-12-09T01:22:52.725Z,95280.44
2018-12-09T01:25:21.534Z,95273.13
2018-12-09T01:27:50.434Z,95287.17
2018-12-09T01:30:19.177Z,95289.06
2018-12-09T01:32:47.950Z,95294.94
2018-12-09T01:35:16.745Z,95276.94
2018-12-09T01:37:45.554Z,95291.02
2018-12-09T01:40:14.357Z,95307.45
2018-12-09T01:42:43.908Z,95332.00
2018-12-09T01:45:12.877Z,95320.20
2018-12-09T01:47:41.665Z,95317.12
2018-12-09T01:50:10.444Z,95326.30
2018-12-09T01:52:39.210Z,95321.87
2018-12-09T01:55:07.966Z,95327.59
2018-12-09T01:57:37.156Z,95329.39
2018-12-09T02:00:06.355Z,95326.47
2018-12-09T02:08:24.402Z,95358.78
2018-12-09T02:10:53.512Z,95344.03
2018-12-09T02:13:22.605Z,95360.53
2018-12-09T02:15:51.915Z,95377.54
2018-12-09T02:18:20.699Z,95368.81
2018-12-09T02:20:49.462Z,95373.17
2018-12-09T02:23:18.220Z,95367.87
2018-12-09T02:25:47.011Z,95374.59
2018-12-09T02:28:15.843Z,95385.44
2018-12-09T02:30:44.625Z,95362.16
2018-12-09T02:33:13.809Z,95365.73
2018-12-09T02:35:46.503Z,95380.97
2018-12-09T02:38:15.276Z,95377.47
2018-12-09T02:40:44.067Z,95373.06
2018-12-09T02:43:13.169Z,95374.28
2018-12-09T02:45:42.025Z,95387.84
2018-12-09T02:48:11.027Z,95393.46
2018-12-09T02:50:39.818Z,95392.41
2018-12-09T02:53:08.855Z,95393.46
2018-12-09T02:55:37.665Z,95388.13
2018-12-09T02:58:06.433Z,95394.05
2018-12-09T03:00:35.242Z,95397.28
2018-12-09T03:03:04.256Z,95392.16
2018-12-09T03:05:33.392Z,95395.09
2018-12-09T03:08:02.294Z,95401.64
2018-12-09T03:10:31.158Z,95402.33
2018-12-09T03:13:00.019Z,95398.45
2018-12-09T03:15:29.107Z,95399.28
2018-12-09T03:17:57.890Z,95396.73
2018-12-09T03:20:26.729Z,95383.26
2018-12-09T03:23:01.885Z,95391.39
2018-12-09T03:25:30.644Z,95404.27
2018-12-09T03:27:59.518Z,95388.23
2018-12-09T03:30:28.631Z,95400.80
2018-12-09T03:32:57.387Z,95408.22
2018-12-09T03:35:26.151Z,95404.37
2018-12-09T03:37:55.556Z,95405.73
2018-12-09T03:40:24.315Z,95415.97
2018-12-09T03:42:53.106Z,95415.67
2018-12-09T03:45:21.936Z,95407.42
2018-12-09T03:47:50.721Z,95421.73
2018-12-09T03:50:19.852Z,95405.24
2018-12-09T03:52:48.652Z,95391.84
2018-12-09T03:55:17.420Z,95407.53
2018-12-09T03:57:46.440Z,95412.02
2018-12-09T04:00:15.927Z,95424.97
2018-12-09T04:02:44.696Z,95426.72
2018-12-09T04:05:13.479Z,95421.23
2018-12-09T04:07:42.523Z,95433.20
2018-12-09T04:10:11.274Z,95434.55
2018-12-09T04:12:40.027Z,95422.28
2018-12-09T04:15:09.674Z,95428.11
2018-12-09T04:17:38.440Z,95431.94
2018-12-09T04:20:07.531Z,95427.95
2018-12-09T04:22:36.867Z,95413.58
2018-12-09T04:25:05.634Z,95424.67
2018-12-09T04:27:34.694Z,95431.97
2018-12-09T04:30:04.081Z,95424.81
2018-12-09T04:32:32.806Z,95425.95
2018-12-09T04:35:01.553Z,95422.41
2018-12-09T04:37:30.324Z,95431.28
2018-12-09T04:39:59.099Z,95437.53
2018-12-09T04:42:27.909Z,95434.44
2018-12-09T04:44:56.750Z,95447.53
2018-12-09T04:47:25.974Z,95445.88
2018-12-09T04:49:55.003Z,95430.67
2018-12-09T04:52:23.745Z,95455.53
2018-12-09T04:54:52.533Z,95447.94
2018-12-09T04:57:21.313Z,95452.52
2018-12-09T04:59:50.139Z,95447.02
2018-12-09T05:02:18.904Z,95454.75
2018-12-09T05:04:47.702Z,95444.62
2018-12-09T05:07:16.470Z,95458.25
2018-12-09T05:09:45.447Z,95468.86
2018-12-09T05:12:14.325Z,95457.20
2018-12-09T05:14:43.235Z,95461.27
2018-12-09T05:17:12.007Z,95466.37
2018-12-09T05:19:41.218Z,95475.47
2018-12-09T05:22:10.256Z,95472.33
2018-12-09T05:24:39.035Z,95469.92
2018-12-09T05:27:07.782Z,95471.58
2018-12-09T05:29:36.530Z,95474.50
2018-12-09T05:32:05.322Z,95482.94
2018-12-09T05:34:34.096Z,95475.77
2018-12-09T05:37:02.882Z,95471.62
2018-12-09T05:39:31.717Z,95476.59
2018-12-09T05:42:00.462Z,95475.45
2018-12-09T05:44:29.217Z,95472.73
2018-12-09T05:46:57.987Z,95480.23
2018-12-09T05:49:26.758Z,95488.14
2018-12-09T05:51:55.523Z,95477.16
2018-12-09T05:54:25.139Z,95483.45
2018-12-09T05:56:53.898Z,95487.14
2018-12-09T05:59:22.674Z,95493.92
2018-12-09T06:01:51.425Z,95487.34
2018-12-09T06:04:20.169Z,95505.27
2018-12-09T06:06:48.894Z,95494.02
2018-12-09T06:09:17.669Z,95511.30
2018-12-09T06:11:46.425Z,95497.11
2018-12-09T06:14:15.214Z,95513.72
2018-12-09T06:16:44.206Z,95509.50
2018-12-09T06:19:12.962Z,95528.16
2018-12-09T06:21:41.691Z,95515.12
2018-12-09T06:24:10.439Z,95510.38
2018-12-09T06:26:39.181Z,95527.14
2018-12-09T06:29:08.617Z,95534.80
2018-12-09T06:31:37.395Z,95532.83
2018-12-09T06:34:06.398Z,95530.61
2018-12-09T06:36:35.307Z,95532.19
2018-12-09T06:39:04.861Z,95526.27
2018-12-09T06:41:33.636Z,95531.84
2018-12-09T06:44:02.527Z,95520.27
2018-12-09T06:46:31.311Z,95534.52
2018-12-09T06:49:00.078Z,95540.58
2018-12-09T06:51:29.073Z,95544.66
2018-12-09T06:53:57.793Z,95556.48
2018-12-09T06:56:26.525Z,95548.36
2018-12-09T06:58:55.316Z,95545.94
2018-12-09T07:01:24.409Z,95546.38
2018-12-09T07:03:54.117Z,95551.58
2018-12-09T07:06:23.134Z,95557.94
2018-12-09T07:08:52.101Z,95556.59
2018-12-09T07:11:20.857Z,95564.80
2018-12-09T07:13:50.179Z,95566.80
2018-12-09T07:16:19.115Z,95564.67
2018-12-09T07:18:48.008Z,95573.75
2018-12-09T07:21:16.850Z,95584.23
2018-12-09T07:23:45.615Z,95575.84
2018-12-09T07:26:14.349Z,95579.92
2018-12-09T07:28:43.436Z,95585.29
2018-12-09T07:31:12.230Z,95597.78
2018-12-09T07:33:41.020Z,95600.23
2018-12-09T07:36:09.869Z,95610.84
2018-12-09T07:38:38.880Z,95587.74
2018-12-09T07:41:08.430Z,95599.97
2018-12-09T07:43:37.150Z,95613.86
2018-12-09T07:46:05.906Z,95626.38
2018-12-09T07:48:34.826Z,95617.14
2018-12-09T07:51:03.824Z,95620.13
2018-12-09T07:53:32.575Z,95635.97
2018-12-09T07:56:01.295Z,95624.59
2018-12-09T07:58:30.008Z,95631.63
2018-12-09T08:00:59.133Z,95630.03
2018-12-09T08:03:27.892Z,95630.50
2018-12-09T08:05:57.102Z,95637.82
2018-12-09T08:08:25.907Z,95643.09
2018-12-09T08:10:54.942Z,95650.08
2018-12-09T08:13:23.760Z,95639.67
2018-12-09T08:15:52.526Z,95642.29
2018-12-09T08:18:21.309Z,95657.92
2018-12-09T08:20:50.133Z,95667.06
2018-12-09T08:23:19.738Z,95659.41
2018-12-09T08:25:48.713Z,95661.36
2018-12-09T08:28:17.454Z,95666.20
2018-12-09T08:30:46.262Z,95663.53
2018-12-09T08:33:15.688Z,95670.89
2018-12-09T08:35:49.123Z,95671.87
2018-12-09T08:38:17.892Z,95659.84
2018-12-09T08:40:46.862Z,95671.99
2018-12-09T08:43:15.886Z,95674.03
2018-12-09T08:45:45.532Z,95679.87
2018-12-09T08:48:14.375Z,95670.53
2018-12-09T08:50:43.664Z,95684.86
2018-12-09T08:53:12.683Z,95676.79
2018-12-09T08:55:41.715Z,95685.64
2018-12-09T08:58:11.118Z,95683.15
2018-12-09T09:00:40.174Z,95680.31
2018-12-09T09:03:09.019Z,95690.79
2018-12-09T09:05:38.111Z,95693.13
2018-12-09T09:08:07.505Z,95697.82
2018-12-09T09:10:36.263Z,95696.16
2018-12-09T09:13:05.219Z,95687.14
2018-12-09T09:15:34.343Z,95703.64
2018-12-09T09:18:03.667Z,95693.41
2018-12-09T09:20:32.445Z,95696.78
2018-12-09T09:23:01.211Z,95708.69
2018-12-09T09:25:29.954Z,95703.19
2018-12-09T09:27:59.049Z,95710.75
2018-12-09T09:30:27.778Z,95725.14
2018-12-09T09:32:58.739Z,95720.69
2018-12-09T09:35:27.722Z,95724.69
2018-12-09T09:37:56.515Z,95724.38
2018-12-09T09:40:25.287Z,95716.02
2018-12-09T09:42:54.931Z,95718.06
2018-12-09T09:45:23.769Z,95719.34
2018-12-09T09:47:52.802Z,95718.42
2018-12-09T09:50:21.762Z,95717.37
2018-12-09T09:52:50.576Z,95732.07
2018-12-09T09:55:19.378Z,95731.94
2018-12-09T09:57:48.516Z,95727.87
2018-12-09T10:00:17.474Z,95730.58
2018-12-09T10:02:46.707Z,95741.13
2018-12-09T10:05:15.450Z,95743.36
2018-12-09T10:07:44.643Z,95736.58
2018-12-09T10:10:13.402Z,95742.09
2018-12-09T10:12:43.015Z,95738.77
2018-12-09T10:15:11.861Z,95742.62
2018-12-09T10:17:41.074Z,95744.19
2018-12-09T10:20:09.814Z,95745.19
2018-12-09T10:22:38.812Z,95758.23
2018-12-09T10:25:07.770Z,95761.25
2018-12-09T10:27:37.161Z,95755.30
2018-12-09T10:30:06.683Z,95765.59
2018-12-09T10:32:35.882Z,95758.45
2018-12-09T10:35:04.793Z,95753.38
2018-12-09T10:37:33.683Z,95757.23
2018-12-09T10:40:02.690Z,95764.02
2018-12-09T10:42:33.442Z,95764.53
2018-12-09T10:45:02.314Z,95765.53
2018-12-09T10:47:31.055Z,95767.94
2018-12-09T10:49:59.942Z,95756.27
2018-12-09T10:52:28.701Z,95754.21
2018-12-09T10:54:57.462Z,95758.75
2018-12-09T10:57:26.191Z,95763.70
2018-12-09T10:59:55.327Z,95762.66
2018-12-09T11:02:24.279Z,95761.77
2018-12-09T11:04:53.158Z,95770.21
2018-12-09T11:07:22.801Z,95772.92
2018-12-09T11:09:51.780Z,95772.53
2018-12-09T11:12:20.730Z,95770.66
2018-12-09T11:14:50.099Z,95770.57
2018-12-09T11:17:19.226Z,95776.83
2018-12-09T11:19:48.230Z,95778.48
2018-12-09T11:22:17.003Z,95786.31
2018-12-09T11:24:45.970Z,95781.95
2018-12-09T11:27:14.933Z,95793.49
2018-12-09T11:29:43.692Z,95787.84
2018-12-09T11:32:13.050Z,95787.98
2018-12-09T11:34:43.865Z,95796.95
2018-12-09T11:37:12.874Z,95796.87
2018-12-09T11:39:42.070Z,95797.86
2018-12-09T11:42:10.838Z,95797.48
2018-12-09T11:44:40.062Z,95802.08
2018-12-09T11:47:09.002Z,95833.04
2018-12-09T11:49:37.757Z,95874.04
2018-12-09T11:52:07.191Z,95856.46
2018-12-09T11:54:36.244Z,95868.09
2018-12-09T11:57:05.245Z,95873.44
2018-12-09T11:59:34.619Z,95861.52
2018-12-09T12:02:03.778Z,95883.95
2018-12-09T12:04:33.275Z,95884.47
2018-12-09T12:07:02.039Z,95887.19
2018-12-09T12:09:36.813Z,95891.94
2018-12-09T12:12:05.566Z,95883.49
2018-12-09T12:14:34.326Z,95889.96
2018-12-09T12:17:04.261Z,95885.22
2018-12-09T12:19:34.149Z,95885.30
2018-12-09T12:22:06.187Z,95882.97
2018-12-09T12:24:34.938Z,95878.81
2018-12-09T12:27:04.200Z,95880.38
2018-12-09T12:29:34.007Z,95884.45
2018-12-09T12:32:02.894Z,95882.98
2018-12-09T12:34:31.894Z,95888.89
2018-12-09T12:37:00.894Z,95887.31
2018-12-09T12:39:30.661Z,95887.78
2018-12-09T12:41:59.538Z,95886.86
2018-12-09T12:44:29.786Z,95891.91
2018-12-09T12:47:00.921Z,95897.98
2018-12-09T12:49:29.666Z,95902.81
2018-12-09T12:51:58.758Z,95908.09
2018-12-09T12:54:27.506Z,95904.23
2018-12-09T12:56:56.266Z,95913.08
2018-12-09T12:59:24.998Z,95918.13
2018-12-09T13:01:53.758Z,95922.50
2018-12-09T13:04:22.856Z,95933.48
2018-12-09T13:06:51.644Z,95936.41
2018-12-09T13:09:20.439Z,95943.86
2018-12-09T13:11:49.334Z,95948.85
2018-12-09T13:14:18.066Z,95951.69
2018-12-09T13:16:47.074Z,95963.36
2018-12-09T13:19:16.053Z,95958.90
2018-12-09T13:21:44.814Z,95972.09
2018-12-09T13:24:13.570Z,95975.55
2018-12-09T13:26:42.310Z,95991.66
2018-12-09T13:29:11.256Z,95984.52
2018-12-09T13:31:40.015Z,95996.09
2018-12-09T13:34:08.815Z,95996.03
2018-12-09T13:36:38.327Z,96002.94
2018-12-09T13:39:07.719Z,96004.38
2018-12-09T13:41:36.531Z,96006.30
2018-12-09T13:44:05.585Z,96016.72
2018-12-09T13:46:34.831Z,96021.74
2018-12-09T13:49:04.087Z,96019.55
2018-12-09T13:51:32.842Z,96031.64
2018-12-09T13:54:01.644Z,96041.56
2018-12-09T13:56:31.013Z,96041.78
2018-12-09T13:58:59.806Z,96054.29
2018-12-09T14:01:29.717Z,96059.66
2018-12-09T14:03:58.502Z,96066.33
2018-12-09T14:06:27.335Z,96073.23
2018-12-09T14:08:56.074Z,96076.16
2018-12-09T14:11:24.827Z,96079.27
2018-12-09T14:13:53.732Z,96084.91
2018-12-09T14:16:22.859Z,96094.41
2018-12-09T14:18:51.614Z,96093.57
2018-12-09T14:21:21.161Z,96108.18
2018-12-09T14:23:51.197Z,96119.08
2018-12-09T14:26:20.281Z,96124.39
2018-12-09T14:28:49.052Z,96129.87
2018-12-09T14:31:18.808Z,96132.79
2018-12-09T14:33:50.190Z,96130.70
2018-12-09T14:36:19.831Z,96141.97
2018-12-09T14:40:23.705Z,96148.03
2018-12-09T14:42:52.902Z,96162.94
2018-12-09T14:45:22.284Z,96167.33
2018-12-09T14:47:51.264Z,96168.09
2018-12-09T14:50:21.290Z,96176.41
2018-12-09T14:52:51.255Z,96181.27
2018-12-09T14:55:20.838Z,96186.48
2018-12-09T14:57:49.895Z,96183.98
2018-12-09T15:00:19.538Z,96190.55
2018-12-09T15:02:50.193Z,96197.02
2018-12-09T15:05:19.395Z,96195.67
2018-12-09T15:07:48.118Z,96192.95
2018-12-09T15:10:17.781Z,96202.59
2018-12-09T15:12:46.605Z,96212.09
2018-12-09T15:15:15.823Z,96214.91
2018-12-09T15:17:45.182Z,96220.86
2018-12-09T15:20:14.874Z,96230.45
2018-12-09T15:22:44.106Z,96241.69
2018-12-09T15:25:13.222Z,96239.18
2018-12-09T15:27:41.983Z,96238.03
2018-12-09T15:30:11.819Z,96240.89
2018-12-09T15:32:41.404Z,96250.59
2018-12-09T15:35:10.426Z,96260.16
2018-12-09T15:37:39.232Z,96256.41
2018-12-09T15:40:08.298Z,96281.86
2018-12-09T15:42:37.258Z,96282.63
2018-12-09T15:45:07.393Z,96293.47
2018-12-09T15:47:36.328Z,96298.51
2018-12-09T15:50:06.911Z,96299.55
2018-12-09T15:52:35.684Z,96311.55
2018-12-09T15:55:06.506Z,96308.71
2018-12-09T15:57:35.563Z,96316.64
2018-12-09T16:00:04.397Z,96312.80
2018-12-09T16:02:33.193Z,96317.59
2018-12-09T16:05:02.182Z,96311.27
2018-12-09T16:07:30.948Z,96325.86
2018-12-09T16:10:01.125Z,96333.89
2018-12-09T16:12:30.302Z,96339.84
2018-12-09T16:14:59.250Z,96347.33
2018-12-09T16:17:28.265Z,96358.91
2018-12-09T16:19:57.052Z,96379.38
2018-12-09T16:22:26.815Z,96374.15
2018-12-09T16:24:55.603Z,96374.98
2018-12-09T16:27:24.559Z,96387.20
2018-12-09T16:29:53.358Z,96385.02
2018-12-09T16:32:22.212Z,96392.09
2018-12-09T16:34:51.198Z,96402.84
2018-12-09T16:37:20.213Z,96409.72
2018-12-09T16:39:49.125Z,96412.11
2018-12-09T16:42:17.882Z,96422.97
2018-12-09T16:44:46.827Z,96427.78
2018-12-09T16:47:15.610Z,96439.55
2018-12-09T16:49:44.537Z,96439.67
2018-12-09T16:52:13.925Z,96451.03
2018-12-09T16:54:43.141Z,96456.78
2018-12-09T16:57:14.497Z,96454.27
2018-12-09T16:59:43.540Z,96467.94
2018-12-09T17:02:12.794Z,96474.52
2018-12-09T17:04:41.804Z,96492.95
2018-12-09T17:07:12.525Z,96488.69
2018-12-09T17:09:41.782Z,96500.14
2018-12-09T17:12:10.623Z,96511.42
2018-12-09T17:14:39.688Z,96503.17
2018-12-09T17:17:09.773Z,96509.23
2018-12-09T17:19:39.175Z,96527.78
2018-12-09T17:22:08.171Z,96531.45
2018-12-09T17:24:38.102Z,96544.80
2018-12-09T17:27:09.898Z,96552.55
2018-12-09T17:29:38.882Z,96558.89
2018-12-09T17:32:08.166Z,96567.34
2018-12-09T17:34:37.168Z,96575.59
2018-12-09T17:37:05.944Z,96581.73
2018-12-09T17:39:35.246Z,96595.30
2018-12-09T17:42:04.304Z,96586.92
2018-12-09T17:44:33.135Z,96596.45
2018-12-09T17:47:02.237Z,96599.89
2018-12-09T17:49:32.224Z,96607.95
2018-12-09T17:52:01.124Z,96611.78
2018-12-09T17:54:30.066Z,96617.52
2018-12-09T17:56:59.162Z,96620.62
2018-12-09T17:59:30.819Z,96627.41
2018-12-09T18:02:00.989Z,96638.18
2018-12-09T18:04:31.858Z,96634.03
2018-12-09T18:07:02.969Z,96641.74
2018-12-09T18:09:34.030Z,96649.98
2018-12-09T18:12:02.930Z,96666.03
2018-12-09T18:14:32.171Z,96670.66
2018-12-09T18:17:01.241Z,96681.19
2018-12-09T18:19:30.300Z,96683.47
2018-12-09T18:21:59.078Z,96681.06
2018-12-09T18:24:27.857Z,96688.48
2018-12-09T18:26:56.796Z,96694.96
2018-12-09T18:29:26.198Z,96701.67
2018-12-09T18:31:55.178Z,96698.06
2018-12-09T18:34:24.375Z,96719.57
2018-12-09T18:36:54.052Z,96730.40
2018-12-09T18:39:23.086Z,96733.76
2018-12-09T18:41:52.386Z,96736.98
2018-12-09T18:44:21.332Z,96749.06
2018-12-09T18:46:50.169Z,96751.06
2018-12-09T18:49:19.831Z,96771.28
2018-12-09T18:51:48.783Z,96772.57
2018-12-09T18:54:17.785Z,96783.48
2018-12-09T18:56:46.546Z,96784.16
2018-12-09T18:59:15.358Z,96799.41
2018-12-09T19:01:44.385Z,96801.73
2018-12-09T19:04:13.288Z,96812.64
2018-12-09T19:06:42.111Z,96820.23
2018-12-09T19:09:10.922Z,96819.08
2018-12-09T19:11:39.698Z,96828.17
2018-12-09T19:14:08.734Z,96835.31
2018-12-09T19:16:37.864Z,96848.45
2018-12-09T19:19:07.411Z,96851.11
2018-12-09T19:21:36.503Z,96855.66
2018-12-09T19:24:05.335Z,96854.81
2018-12-09T19:26:34.562Z,96858.08
2018-12-09T19:29:03.494Z,96861.77
2018-12-09T19:31:32.258Z,96876.27
2018-12-09T19:34:01.580Z,96879.07
2018-12-09T19:36:31.507Z,96879.78
2018-12-09T19:39:01.994Z,96891.60
2018-12-09T19:41:31.352Z,96904.52
2018-12-09T19:44:00.615Z,96898.58
2018-12-09T19:46:29.375Z,96904.70
2018-12-09T19:48:58.251Z,96909.62
2018-12-09T19:51:27.255Z,96916.25
2018-12-09T19:53:56.818Z,96919.03
2018-12-09T19:56:26.290Z,96931.80
2018-12-09T19:58:55.295Z,96932.35
2018-12-09T20:01:26.310Z,96943.14
2018-12-09T20:03:55.471Z,96939.91
2018-12-09T20:06:24.538Z,96943.57
2018-12-09T20:08:53.558Z,96951.84
2018-12-09T20:11:22.701Z,96951.69
2018-12-09T20:13:51.832Z,96963.06
2018-12-09T20:16:21.191Z,96958.77
2018-12-09T20:18:50.094Z,96969.30
2018-12-09T20:21:19.179Z,96965.77
2018-12-09T20:23:52.422Z,96969.69
2018-12-09T20:26:21.157Z,96970.27
2018-12-09T20:28:50.337Z,96966.64
2018-12-09T20:31:19.929Z,96978.34
2018-12-09T20:33:48.886Z,96975.70
2018-12-09T20:36:18.111Z,96978.57
2018-12-09T20:38:48.194Z,96978.73
2018-12-09T20:41:16.971Z,96986.58
2018-12-09T20:43:46.142Z,96993.27
2018-12-09T20:46:15.408Z,96998.09
2018-12-09T20:48:44.767Z,96995.84
2018-12-09T20:51:14.234Z,96997.30
2018-12-09T20:53:43.260Z,96998.19
2018-12-09T20:56:12.842Z,97001.00
2018-12-09T20:58:41.832Z,96999.20
2018-12-09T21:01:11.882Z,97003.59
2018-12-09T21:03:41.530Z,96998.48
2018-12-09T21:06:10.994Z,97008.20
2018-12-09T21:08:40.891Z,97013.77
2018-12-09T21:11:09.807Z,97009.38
2018-12-09T21:13:39.273Z,97018.70
2018-12-09T21:16:08.795Z,97023.30
2018-12-09T21:18:37.883Z,97018.17
2018-12-09T21:21:08.383Z,97025.70
2018-12-09T21:23:37.598Z,97034.25
2018-12-09T21:26:13.795Z,97038.65
2018-12-09T21:28:43.456Z,97054.95
2018-12-09T21:31:12.917Z,97052.42
2018-12-09T21:33:42.722Z,97052.09
2018-12-09T21:36:11.975Z,97059.64
2018-12-09T21:38:42.964Z,97062.88
2018-12-09T21:41:13.163Z,97062.83
2018-12-09T21:43:42.414Z,97068.06
2018-12-09T21:46:11.695Z,97071.27
2018-12-09T21:48:41.358Z,97078.91
2018-12-09T21:51:10.238Z,97077.94
2018-12-09T21:53:39.737Z,97085.45
2018-12-09T21:56:09.163Z,97088.69
2018-12-09T21:58:38.333Z,97096.13
2018-12-09T22:01:07.737Z,97097.78
2018-12-09T22:03:36.527Z,97100.75
2018-12-09T22:06:05.824Z,97105.15
2018-12-09T22:08:34.983Z,97105.37
2018-12-09T22:11:03.789Z,97102.20
2018-12-09T22:13:32.826Z,97110.42
2018-12-09T22:16:01.763Z,97116.59
2018-12-09T22:18:30.823Z,97113.88
2018-12-09T22:20:59.658Z,97117.30
2018-12-09T22:23:28.438Z,97122.97
2018-12-09T22:25:57.350Z,97128.94
2018-12-09T22:28:26.138Z,97135.44
2018-12-09T22:30:54.967Z,97139.77
2018-12-09T22:33:23.819Z,97142.89
2018-12-09T22:35:53.517Z,97140.52
2018-12-09T22:38:22.254Z,97146.15
2018-12-09T22:40:50.998Z,97147.70
2018-12-09T22:43:19.795Z,97149.70
2018-12-09T22:45:49.074Z,97159.78
2018-12-09T22:48:17.884Z,97161.69
2018-12-09T22:50:46.824Z,97174.53
2018-12-09T22:53:15.598Z,97188.70
2018-12-09T22:55:44.570Z,97190.44
2018-12-09T22:58:14.379Z,97190.44
2018-12-09T23:00:48.185Z,97195.81
2018-12-09T23:03:16.950Z,97201.11
2018-12-09T23:05:46.257Z,97211.45
2018-12-09T23:08:15.304Z,97217.48
2018-12-09T23:10:44.255Z,97219.21
2018-12-09T23:13:13.029Z,97215.47
2018-12-09T23:15:41.958Z,97224.17
2018-12-09T23:18:10.718Z,97218.48
2018-12-09T23:20:39.686Z,97226.30
2018-12-09T23:23:08.628Z,97230.56
2018-12-09T23:25:37.442Z,97225.40
2018-12-09T23:28:06.185Z,97241.03
2018-12-09T23:30:35.279Z,97240.44
2018-12-09T23:33:04.226Z,97238.80
2018-12-09T23:35:33.226Z,97247.66
2018-12-09T23:38:02.022Z,97256.69
2018-12-09T23:40:31.648Z,97250.75
2018-12-09T23:43:00.452Z,97257.13
2018-12-09T23:45:29.383Z,97260.72
2018-12-09T23:47:58.463Z,97262.33
2018-12-09T23:50:27.288Z,97262.03
2018-12-09T23:52:56.263Z,97273.42
2018-12-09T23:55:25.040Z,97276.80
2018-12-09T23:57:54.047Z,97276.02
